createdAt,value
2022-12-15T00:02:21.120Z,-5.95
2022-12-15T00:05:06.927Z,-5.93
2022-12-15T00:07:52.777Z,-5.89
2022-12-15T00:10:39.088Z,-5.82
2022-12-15T00:13:31.994Z,-5.84
2022-12-15T00:16:18.063Z,-5.80
2022-12-15T00:19:04.245Z,-5.77
2022-12-15T00:21:49.425Z,-5.78
2022-12-15T00:24:34.701Z,-5.80
2022-12-15T00:27:19.671Z,-5.78
2022-12-15T00:30:05.347Z,-5.80
2022-12-15T00:32:51.030Z,-5.83
2022-12-15T00:35:36.767Z,-5.84
2022-12-15T00:38:31.834Z,-5.86
2022-12-15T00:41:00.749Z,-5.90
2022-12-15T00:43:29.706Z,-5.88
2022-12-15T00:46:15.272Z,-5.89
2022-12-15T00:48:47.212Z,-5.87
2022-12-15T00:51:15.237Z,-5.85
2022-12-15T00:54:01.158Z,-5.84
2022-12-15T00:56:47.052Z,-5.83
2022-12-15T00:59:36.056Z,-5.81
2022-12-15T01:02:22.859Z,-5.77
2022-12-15T01:05:08.233Z,-5.72
2022-12-15T01:07:56.737Z,-5.72
2022-12-15T01:10:43.866Z,-5.70
2022-12-15T01:13:32.646Z,-5.67
2022-12-15T01:16:18.281Z,-5.64
2022-12-15T01:19:03.702Z,-5.66
2022-12-15T01:21:31.924Z,-5.71
2022-12-15T01:23:58.825Z,-5.76
2022-12-15T01:26:26.038Z,-5.78
2022-12-15T01:28:55.092Z,-5.77
2022-12-15T01:31:21.609Z,-5.76
2022-12-15T01:33:48.581Z,-5.78
2022-12-15T01:36:15.552Z,-5.81
2022-12-15T01:38:42.775Z,-5.85
2022-12-15T01:41:10.800Z,-5.88
2022-12-15T01:43:39.355Z,-5.92
2022-12-15T01:46:17.916Z,-5.89
2022-12-15T01:48:49.121Z,-5.86
2022-12-15T01:51:18.445Z,-5.84
2022-12-15T01:54:10.251Z,-5.83
2022-12-15T01:56:44.804Z,-5.82
2022-12-15T01:59:16.649Z,-5.81
2022-12-15T02:01:43.783Z,-5.79
2022-12-15T02:04:19.533Z,-5.83
2022-12-15T02:06:46.978Z,-5.82
2022-12-15T02:09:15.137Z,-5.81
2022-12-15T02:11:53.825Z,-5.78
2022-12-15T02:14:46.282Z,-5.78
2022-12-15T02:17:35.497Z,-5.76
2022-12-15T02:20:28.348Z,-5.73
2022-12-15T02:23:18.763Z,-5.78
2022-12-15T02:26:44.690Z,-5.76
2022-12-15T02:29:26.233Z,-5.76
2022-12-15T02:32:00.803Z,-5.76
2022-12-15T02:34:45.424Z,-5.79
2022-12-15T02:37:12.030Z,-5.82
2022-12-15T02:39:38.727Z,-5.84
2022-12-15T02:42:05.417Z,-5.85
2022-12-15T02:44:38.195Z,-5.88
2022-12-15T02:47:35.359Z,-5.89
2022-12-15T02:50:19.820Z,-5.91
2022-12-15T02:53:18.260Z,-5.91
2022-12-15T02:55:59.724Z,-5.95
2022-12-15T02:58:38.498Z,-5.96
2022-12-15T03:01:42.951Z,-5.98
2022-12-15T03:04:12.172Z,-5.98
2022-12-15T03:06:42.574Z,-5.99
2022-12-15T03:09:09.174Z,-6.01
2022-12-15T03:11:37.160Z,-6.03
2022-12-15T03:14:04.031Z,-6.05
2022-12-15T03:16:30.969Z,-6.02
2022-12-15T03:18:57.956Z,-6.00
2022-12-15T03:21:24.475Z,-5.97
2022-12-15T03:23:51.898Z,-5.94
2022-12-15T03:26:18.959Z,-5.94
2022-12-15T03:28:45.657Z,-5.90
2022-12-15T03:31:13.009Z,-5.87
2022-12-15T03:33:41.206Z,-5.87
2022-12-15T03:36:08.494Z,-5.87
2022-12-15T03:38:35.188Z,-5.84
2022-12-15T03:41:02.187Z,-5.81
2022-12-15T03:43:29.309Z,-5.81
2022-12-15T03:45:56.142Z,-5.84
2022-12-15T03:48:22.759Z,-5.85
2022-12-15T03:50:50.056Z,-5.82
2022-12-15T03:53:16.543Z,-5.84
2022-12-15T03:55:46.250Z,-5.87
2022-12-15T03:58:13.083Z,-5.87
2022-12-15T04:00:46.329Z,-5.92
2022-12-15T04:03:13.152Z,-5.93
2022-12-15T04:05:40.462Z,-5.95
2022-12-15T04:08:07.107Z,-5.98
2022-12-15T04:10:35.354Z,-6.02
2022-12-15T04:13:10.539Z,-6.05
2022-12-15T04:15:39.331Z,-6.05
2022-12-15T04:18:09.913Z,-6.04
2022-12-15T04:20:38.054Z,-6.06
2022-12-15T04:23:07.650Z,-6.07
2022-12-15T04:25:54.553Z,-6.08
2022-12-15T04:28:40.152Z,-6.08
2022-12-15T04:31:30.214Z,-6.09
2022-12-15T04:34:21.292Z,-6.10
2022-12-15T04:37:10.322Z,-6.11
2022-12-15T04:40:02.877Z,-6.12
2022-12-15T04:42:50.423Z,-6.14
2022-12-15T04:45:38.924Z,-6.18
2022-12-15T04:48:24.807Z,-6.15
2022-12-15T04:51:10.294Z,-6.14
2022-12-15T04:53:55.460Z,-6.12
2022-12-15T04:56:40.717Z,-6.11
2022-12-15T04:59:26.014Z,-6.11
2022-12-15T05:02:11.795Z,-6.12
2022-12-15T05:04:56.935Z,-6.12
2022-12-15T05:07:43.788Z,-6.10
2022-12-15T05:10:30.107Z,-6.09
2022-12-15T05:13:23.163Z,-6.10
2022-12-15T05:16:08.520Z,-6.07
2022-12-15T05:18:53.543Z,-6.02
2022-12-15T05:21:38.567Z,-5.99
2022-12-15T05:24:23.878Z,-5.94
2022-12-15T05:27:09.149Z,-5.87
2022-12-15T05:29:53.899Z,-5.84
2022-12-15T05:32:20.370Z,-5.85
2022-12-15T05:34:47.189Z,-5.89
2022-12-15T05:37:13.865Z,-5.86
2022-12-15T05:39:40.320Z,-5.84
2022-12-15T05:42:07.065Z,-5.86
2022-12-15T05:44:34.099Z,-5.84
2022-12-15T05:47:00.571Z,-5.82
2022-12-15T05:49:27.083Z,-5.81
2022-12-15T05:51:53.774Z,-5.81
2022-12-15T05:54:20.672Z,-5.80
2022-12-15T05:56:50.392Z,-5.83
2022-12-15T05:59:19.058Z,-5.82
2022-12-15T06:01:45.962Z,-5.80
2022-12-15T06:04:13.250Z,-5.81
2022-12-15T06:06:40.524Z,-5.79
2022-12-15T06:09:07.386Z,-5.75
2022-12-15T06:11:33.906Z,-5.71
2022-12-15T06:14:00.742Z,-5.69
2022-12-15T06:16:30.696Z,-5.67
2022-12-15T06:19:00.113Z,-5.63
2022-12-15T06:21:30.102Z,-5.66
2022-12-15T06:23:57.707Z,-5.71
2022-12-15T06:26:33.709Z,-5.73
2022-12-15T06:29:06.846Z,-5.77
2022-12-15T06:31:34.029Z,-5.81
2022-12-15T06:34:07.549Z,-5.82
2022-12-15T06:36:34.638Z,-5.80
2022-12-15T06:39:04.319Z,-5.79
2022-12-15T06:41:31.866Z,-5.82
2022-12-15T06:43:59.900Z,-5.84
2022-12-15T06:46:28.217Z,-5.84
2022-12-15T06:48:55.461Z,-5.83
2022-12-15T06:51:22.008Z,-5.86
2022-12-15T06:53:49.223Z,-5.87
2022-12-15T06:56:27.281Z,-5.89
2022-12-15T06:58:59.999Z,-5.90
2022-12-15T07:01:27.087Z,-5.90
2022-12-15T07:03:55.298Z,-5.89
2022-12-15T07:06:22.762Z,-5.88
2022-12-15T07:08:52.499Z,-5.89
2022-12-15T07:11:21.013Z,-5.93
2022-12-15T07:13:54.379Z,-5.93
2022-12-15T07:16:22.831Z,-5.94
2022-12-15T07:18:49.829Z,-5.94
2022-12-15T07:21:16.723Z,-5.98
2022-12-15T07:23:54.766Z,-6.01
2022-12-15T07:26:21.960Z,-6.01
2022-12-15T07:28:48.565Z,-6.04
2022-12-15T07:31:15.575Z,-6.03
2022-12-15T07:33:43.035Z,-6.04
2022-12-15T07:36:09.736Z,-6.02
2022-12-15T07:38:36.856Z,-6.01
2022-12-15T07:41:05.793Z,-6.03
2022-12-15T07:43:32.848Z,-6.01
2022-12-15T07:46:00.929Z,-5.97
2022-12-15T07:48:27.885Z,-6.01
2022-12-15T07:51:05.196Z,-6.00
2022-12-15T07:53:36.282Z,-6.00
2022-12-15T07:56:07.989Z,-6.00
2022-12-15T07:58:36.777Z,-5.99
2022-12-15T08:01:06.681Z,-5.99
2022-12-15T08:03:34.238Z,-5.98
2022-12-15T08:06:05.586Z,-5.96
2022-12-15T08:08:33.467Z,-5.92
2022-12-15T08:11:05.188Z,-5.89
2022-12-15T08:14:01.489Z,-5.86
2022-12-15T08:16:20.343Z,-5.80
2022-12-15T08:18:47.427Z,-5.75
2022-12-15T08:21:14.608Z,-5.70
2022-12-15T08:23:41.320Z,-5.64
2022-12-15T08:26:11.125Z,-5.63
2022-12-15T08:28:40.171Z,-5.60
2022-12-15T08:31:18.541Z,-5.60
2022-12-15T08:33:45.886Z,-5.56
2022-12-15T08:36:15.003Z,-5.52
2022-12-15T08:38:43.134Z,-5.48
2022-12-15T08:41:18.058Z,-5.44
2022-12-15T08:43:48.662Z,-5.41
2022-12-15T08:46:17.672Z,-5.36
2022-12-15T08:48:45.063Z,-5.34
2022-12-15T08:51:12.182Z,-5.28
2022-12-15T08:53:39.278Z,-5.23
2022-12-15T08:56:12.087Z,-5.18
2022-12-15T08:58:39.020Z,-5.13
2022-12-15T09:01:23.272Z,-5.09
2022-12-15T09:03:52.269Z,-5.05
2022-12-15T09:06:27.582Z,-5.03
2022-12-15T09:08:56.476Z,-4.98
2022-12-15T09:11:24.554Z,-4.94
2022-12-15T09:13:51.189Z,-4.88
2022-12-15T09:16:18.977Z,-4.83
2022-12-15T09:18:49.376Z,-4.77
2022-12-15T09:21:17.147Z,-4.73
2022-12-15T09:23:48.332Z,-4.67
2022-12-15T09:26:15.945Z,-4.62
2022-12-15T09:28:43.322Z,-4.53
2022-12-15T09:31:34.656Z,-4.41
2022-12-15T09:34:01.850Z,-4.33
2022-12-15T09:36:30.381Z,-4.25
2022-12-15T09:38:56.859Z,-4.22
2022-12-15T09:41:28.655Z,-4.17
2022-12-15T09:44:12.170Z,-4.13
2022-12-15T09:47:16.353Z,-4.05
2022-12-15T09:50:02.912Z,-3.91
2022-12-15T09:52:46.377Z,-3.86
2022-12-15T09:55:27.936Z,-3.81
2022-12-15T09:58:26.870Z,-3.73
2022-12-15T10:00:58.558Z,-3.61
2022-12-15T10:03:46.994Z,-3.57
2022-12-15T10:06:33.137Z,-3.51
2022-12-15T10:09:02.427Z,-3.44
2022-12-15T10:12:01.338Z,-3.38
2022-12-15T10:14:58.022Z,-3.33
2022-12-15T10:17:43.597Z,-3.21
2022-12-15T10:20:22.612Z,-3.11
2022-12-15T10:22:50.205Z,-3.04
2022-12-15T10:25:29.830Z,-3.00
2022-12-15T10:28:24.577Z,-2.98
2022-12-15T10:31:12.870Z,-2.93
2022-12-15T10:33:47.161Z,-2.88
2022-12-15T10:36:16.976Z,-2.83
2022-12-15T10:38:50.228Z,-2.76
2022-12-15T10:41:24.611Z,-2.70
2022-12-15T10:43:53.850Z,-2.63
2022-12-15T10:46:30.264Z,-2.55
2022-12-15T10:48:59.475Z,-2.46
2022-12-15T10:51:37.151Z,-2.32
2022-12-15T10:54:09.883Z,-2.11
2022-12-15T10:56:52.929Z,-1.88
2022-12-15T10:59:26.205Z,-1.77
2022-12-15T11:01:53.177Z,-1.65
2022-12-15T11:04:31.419Z,-1.62
2022-12-15T11:07:01.176Z,-1.62
2022-12-15T11:09:36.992Z,-1.60
2022-12-15T11:12:40.908Z,-1.60
2022-12-15T11:15:37.469Z,-1.50
2022-12-15T11:18:07.554Z,-1.38
2022-12-15T11:20:39.640Z,-1.28
2022-12-15T11:23:16.602Z,-1.17
2022-12-15T11:25:51.431Z,-1.07
2022-12-15T11:28:28.080Z,-1.03
2022-12-15T11:31:01.031Z,-1.02
2022-12-15T11:33:27.830Z,-1.00
2022-12-15T11:36:02.305Z,-0.98
2022-12-15T11:38:40.993Z,-0.96
2022-12-15T11:41:27.925Z,-0.93
2022-12-15T11:44:21.809Z,-0.89
2022-12-15T11:46:59.453Z,-0.82
2022-12-15T11:50:04.761Z,-0.78
2022-12-15T11:52:53.090Z,-0.74
2022-12-15T11:55:41.400Z,-0.70
2022-12-15T11:58:36.746Z,-0.58
2022-12-15T12:01:12.492Z,-0.49
2022-12-15T12:03:57.920Z,-0.41
2022-12-15T12:06:45.732Z,-0.32
2022-12-15T12:09:24.783Z,-0.26
2022-12-15T12:12:03.573Z,-0.20
2022-12-15T12:15:03.641Z,-0.13
2022-12-15T12:17:45.228Z,-0.08
2022-12-15T12:20:18.081Z,-0.06
2022-12-15T12:23:02.493Z,-0.01
2022-12-15T12:25:31.515Z,0.00
2022-12-15T12:28:02.709Z,0.02
2022-12-15T12:30:43.461Z,-0.01
2022-12-15T12:33:36.866Z,-0.02
2022-12-15T12:36:11.173Z,-0.05
2022-12-15T12:38:46.423Z,-0.10
2022-12-15T12:41:41.257Z,-0.15
2022-12-15T12:44:29.379Z,-0.15
2022-12-15T12:46:57.673Z,-0.13
2022-12-15T12:49:36.424Z,-0.03
2022-12-15T12:52:06.373Z,0.02
2022-12-15T12:54:35.894Z,0.07
2022-12-15T12:57:11.329Z,0.11
2022-12-15T12:59:42.959Z,0.12
2022-12-15T13:02:15.694Z,0.10
2022-12-15T13:05:01.753Z,0.11
2022-12-15T13:07:40.793Z,0.11
2022-12-15T13:10:19.324Z,0.10
2022-12-15T13:12:51.929Z,0.06
2022-12-15T13:15:31.476Z,0.05
2022-12-15T13:18:08.116Z,0.03
2022-12-15T13:20:37.644Z,0.00
2022-12-15T13:23:16.415Z,0.00
2022-12-15T13:26:07.069Z,-0.02
2022-12-15T13:28:39.729Z,-0.04
2022-12-15T13:31:21.480Z,-0.07
2022-12-15T13:33:52.236Z,-0.06
2022-12-15T13:36:40.185Z,-0.04
2022-12-15T13:39:12.833Z,-0.01
2022-12-15T13:42:00.652Z,0.01
2022-12-15T13:44:38.367Z,0.05
2022-12-15T13:47:12.806Z,0.09
2022-12-15T13:50:02.393Z,0.11
2022-12-15T13:56:13.980Z,0.24
2022-12-15T13:58:54.563Z,0.29
2022-12-15T14:01:30.205Z,0.33
2022-12-15T14:04:16.737Z,0.37
2022-12-15T14:06:50.910Z,0.38
2022-12-15T14:09:22.528Z,0.36
2022-12-15T14:11:53.675Z,0.34
2022-12-15T14:14:23.685Z,0.32
2022-12-15T14:16:58.774Z,0.31
2022-12-15T14:19:26.705Z,0.30
2022-12-15T14:21:59.696Z,0.28
2022-12-15T14:24:40.873Z,0.25
2022-12-15T14:27:22.505Z,0.23
2022-12-15T14:29:49.048Z,0.20
2022-12-15T14:32:17.320Z,0.17
2022-12-15T14:34:44.940Z,0.15
2022-12-15T14:37:20.459Z,0.12
2022-12-15T14:39:52.205Z,0.09
2022-12-15T14:42:23.410Z,0.10
2022-12-15T14:44:57.768Z,0.10
2022-12-15T14:47:35.378Z,0.12
2022-12-15T14:50:09.449Z,0.11
2022-12-15T14:52:44.829Z,0.10
2022-12-15T14:55:20.781Z,0.06
2022-12-15T14:57:48.857Z,0.07
2022-12-15T15:00:37.611Z,0.09
2022-12-15T15:05:58.330Z,0.03
2022-12-15T15:09:03.732Z,-0.03
2022-12-15T15:11:33.891Z,-0.07
2022-12-15T15:14:06.778Z,-0.11
2022-12-15T15:16:33.876Z,-0.17
2022-12-15T15:19:03.312Z,-0.19
2022-12-15T15:21:33.942Z,-0.22
2022-12-15T15:24:23.240Z,-0.25
2022-12-15T19:14:40.135Z,-1.73
2022-12-15T19:17:36.710Z,-1.74
2022-12-15T19:20:32.944Z,-1.76
2022-12-15T19:22:59.452Z,-1.77
2022-12-15T19:25:28.996Z,-1.73
2022-12-15T19:27:59.624Z,-1.70
2022-12-15T19:30:29.547Z,-1.66
2022-12-15T19:32:56.593Z,-1.61
2022-12-15T19:35:24.605Z,-1.60
2022-12-15T19:37:54.968Z,-1.57
2022-12-15T19:40:28.373Z,-1.58
2022-12-15T19:42:55.426Z,-1.60
2022-12-15T19:45:25.465Z,-1.61
2022-12-15T19:47:52.087Z,-1.64
2022-12-15T19:50:36.686Z,-1.64
2022-12-15T19:53:25.473Z,-1.67
2022-12-15T19:55:57.558Z,-1.73
2022-12-15T19:58:28.115Z,-1.78
2022-12-15T20:00:57.119Z,-1.81
2022-12-15T20:03:24.457Z,-1.85
2022-12-15T20:05:52.985Z,-1.86
2022-12-15T20:08:23.223Z,-1.85
2022-12-15T20:10:51.180Z,-1.87
2022-12-15T20:13:18.188Z,-1.86
2022-12-15T20:15:44.790Z,-1.86
2022-12-15T20:18:11.698Z,-1.85
2022-12-15T20:20:39.407Z,-1.84
2022-12-15T20:23:13.981Z,-1.81
2022-12-15T20:25:42.267Z,-1.81
2022-12-15T20:28:19.725Z,-1.77
2022-12-15T20:30:47.027Z,-1.74
2022-12-15T20:33:16.601Z,-1.74
2022-12-15T20:35:45.079Z,-1.73
2022-12-15T20:38:31.692Z,-1.75
2022-12-15T20:41:00.530Z,-1.75
2022-12-15T20:43:31.261Z,-1.75
2022-12-15T20:46:04.926Z,-1.74
2022-12-15T20:48:32.656Z,-1.75
2022-12-15T20:51:01.904Z,-1.75
2022-12-15T20:53:31.066Z,-1.72
2022-12-15T20:55:57.994Z,-1.71
2022-12-15T20:58:31.297Z,-1.65
2022-12-15T21:00:59.787Z,-1.65
2022-12-15T21:03:29.978Z,-1.65
2022-12-15T21:05:58.816Z,-1.65
2022-12-15T21:08:28.510Z,-1.65
2022-12-15T21:10:59.902Z,-1.62
2022-12-15T21:13:30.064Z,-1.61
2022-12-15T21:15:57.130Z,-1.60
2022-12-15T21:21:17.469Z,-1.61
2022-12-15T21:23:44.312Z,-1.61
2022-12-15T21:26:10.933Z,-1.61
2022-12-15T21:28:37.541Z,-1.62
2022-12-15T21:31:04.123Z,-1.60
2022-12-15T21:33:30.668Z,-1.60
2022-12-15T21:35:57.147Z,-1.61
2022-12-15T21:38:33.747Z,-1.62
2022-12-15T21:41:03.946Z,-1.65
2022-12-15T21:43:35.741Z,-1.65
2022-12-15T21:46:11.153Z,-1.67
2022-12-15T21:48:56.539Z,-1.69
2022-12-15T21:51:24.053Z,-1.66
2022-12-15T21:53:51.074Z,-1.66
2022-12-15T21:56:19.548Z,-1.63
2022-12-15T21:58:48.902Z,-1.61
2022-12-15T22:01:18.725Z,-1.58
2022-12-15T22:03:52.307Z,-1.57
2022-12-15T22:06:27.887Z,-1.57
2022-12-15T22:08:56.266Z,-1.58
2022-12-15T22:11:25.940Z,-1.55
2022-12-15T22:13:55.205Z,-1.54
2022-12-15T22:16:22.884Z,-1.53
2022-12-15T22:18:57.598Z,-1.51
2022-12-15T22:21:25.365Z,-1.50
2022-12-15T22:23:52.438Z,-1.46
2022-12-15T22:26:22.228Z,-1.43
2022-12-15T22:28:50.443Z,-1.38
2022-12-15T22:31:17.923Z,-1.30
2022-12-15T22:33:44.626Z,-1.28
2022-12-15T22:36:11.075Z,-1.26
2022-12-15T22:38:37.575Z,-1.22
2022-12-15T22:41:06.679Z,-1.20
2022-12-15T22:43:37.708Z,-1.17
2022-12-15T22:46:05.223Z,-1.16
2022-12-15T22:48:37.005Z,-1.17
2022-12-15T22:51:04.419Z,-1.16
2022-12-15T22:53:33.310Z,-1.15
2022-12-15T22:56:03.344Z,-1.14
2022-12-15T22:58:38.822Z,-1.15
2022-12-15T23:01:09.220Z,-1.20
2022-12-15T23:03:36.605Z,-1.23
2022-12-15T23:06:04.208Z,-1.27
2022-12-15T23:08:31.387Z,-1.31
2022-12-15T23:11:18.448Z,-1.36
2022-12-15T23:13:45.382Z,-1.41
2022-12-15T23:16:21.549Z,-1.44
2022-12-15T23:18:50.560Z,-1.48
2022-12-15T23:21:19.102Z,-1.50
2022-12-15T23:23:45.940Z,-1.50
2022-12-15T23:26:13.325Z,-1.52
2022-12-15T23:28:39.868Z,-1.53
2022-12-15T23:31:06.894Z,-1.53
2022-12-15T23:33:34.073Z,-1.56
2022-12-15T23:36:01.765Z,-1.58
2022-12-15T23:38:29.010Z,-1.62
2022-12-15T23:40:56.702Z,-1.70
2022-12-15T23:43:25.670Z,-1.74
2022-12-15T23:46:07.637Z,-1.76
2022-12-15T23:48:37.684Z,-1.74
2022-12-15T23:51:16.063Z,-1.73
2022-12-15T23:53:44.068Z,-1.73
2022-12-15T23:56:17.018Z,-1.76
2022-12-15T23:58:45.102Z,-1.75
